createdAt,value
2022-10-08T00:00:45.168Z,26.00
2022-10-08T00:01:45.206Z,17.90
2022-10-08T00:02:45.635Z,22.00
2022-10-08T00:03:45.414Z,19.30
2022-10-08T00:04:45.235Z,18.40
2022-10-08T00:05:45.238Z,19.80
2022-10-08T00:06:45.754Z,21.50
2022-10-08T00:07:45.271Z,19.40
2022-10-08T00:08:45.316Z,20.80
2022-10-08T00:09:45.289Z,19.00
2022-10-08T00:10:45.323Z,18.60
2022-10-08T00:11:45.328Z,23.40
2022-10-08T00:12:45.636Z,18.40
2022-10-08T00:13:45.515Z,20.70
2022-10-08T00:14:45.392Z,23.60
2022-10-08T00:15:45.388Z,22.30
2022-10-08T00:16:45.435Z,16.90
2022-10-08T00:17:45.433Z,18.90
2022-10-08T00:18:45.462Z,22.10
2022-10-08T00:19:45.638Z,17.80
2022-10-08T00:20:45.523Z,22.30
2022-10-08T00:21:45.519Z,19.30
2022-10-08T00:22:45.867Z,21.40
2022-10-08T00:23:45.592Z,18.80
2022-10-08T00:24:45.599Z,19.00
2022-10-08T00:25:45.693Z,17.90
2022-10-08T00:26:45.622Z,19.00
2022-10-08T00:27:45.623Z,29.30
2022-10-08T00:28:45.735Z,18.70
2022-10-08T00:29:45.651Z,22.90
2022-10-08T00:30:45.707Z,23.60
2022-10-08T00:31:45.991Z,21.80
2022-10-08T00:32:46.004Z,23.20
2022-10-08T00:33:45.891Z,19.30
2022-10-08T00:34:45.796Z,24.00
2022-10-08T00:35:45.823Z,23.00
2022-10-08T00:36:45.846Z,25.90
2022-10-08T00:37:45.850Z,25.30
2022-10-08T00:38:45.897Z,22.30
2022-10-08T00:39:45.896Z,23.50
2022-10-08T00:40:45.977Z,16.40
2022-10-08T00:41:45.967Z,22.00
2022-10-08T00:42:46.208Z,23.90
2022-10-08T00:43:46.006Z,20.80
2022-10-08T00:44:46.033Z,24.60
2022-10-08T00:45:46.238Z,17.20
2022-10-08T00:46:46.078Z,18.70
2022-10-08T00:47:46.080Z,18.50
2022-10-08T00:48:46.106Z,21.40
2022-10-08T00:49:46.100Z,22.10
2022-10-08T00:50:46.196Z,24.90
2022-10-08T00:51:46.161Z,19.40
2022-10-08T00:52:46.458Z,17.60
2022-10-08T00:53:46.322Z,18.20
2022-10-08T00:54:46.229Z,22.80
2022-10-08T00:55:46.243Z,21.90
2022-10-08T00:56:46.275Z,19.20
2022-10-08T00:57:46.264Z,25.20
2022-10-08T00:58:46.323Z,20.80
2022-10-08T00:59:46.316Z,20.00
2022-10-08T01:00:46.423Z,21.10
2022-10-08T01:01:46.384Z,21.30
2022-10-08T01:02:46.599Z,23.20
2022-10-08T01:03:46.497Z,29.60
2022-10-08T01:04:46.427Z,19.10
2022-10-08T01:05:46.453Z,26.20
2022-10-08T01:06:46.458Z,27.10
2022-10-08T01:07:46.446Z,23.20
2022-10-08T01:08:46.482Z,27.90
2022-10-08T01:09:46.491Z,29.40
2022-10-08T01:10:46.673Z,26.50
2022-10-08T01:11:46.560Z,27.30
2022-10-08T01:12:46.811Z,22.20
2022-10-08T01:13:46.611Z,29.20
2022-10-08T01:14:46.619Z,33.80
2022-10-08T01:15:46.622Z,26.60
2022-10-08T01:16:46.818Z,25.00
2022-10-08T01:17:46.669Z,21.60
2022-10-08T01:18:46.701Z,19.00
2022-10-08T01:19:46.680Z,28.40
2022-10-08T01:20:46.718Z,19.20
2022-10-08T01:21:46.704Z,22.60
2022-10-08T01:22:47.576Z,25.50
2022-10-08T01:23:46.767Z,31.60
2022-10-08T01:24:46.788Z,23.50
2022-10-08T01:25:46.776Z,25.00
2022-10-08T01:26:46.832Z,25.60
2022-10-08T01:27:46.863Z,26.00
2022-10-08T01:28:46.925Z,28.60
2022-10-08T01:29:46.867Z,26.00
2022-10-08T01:30:50.813Z,25.70
2022-10-08T01:31:50.972Z,30.20
2022-10-08T01:32:59.620Z,28.80
2022-10-08T01:33:51.021Z,24.70
2022-10-08T01:34:50.980Z,24.30
2022-10-08T01:35:56.884Z,26.90
2022-10-08T01:36:57.033Z,22.40
2022-10-08T01:37:57.044Z,26.40
2022-10-08T01:38:57.099Z,23.40
2022-10-08T01:39:57.117Z,22.60
2022-10-08T01:40:57.139Z,20.90
2022-10-08T01:41:57.144Z,25.60
2022-10-08T01:42:57.217Z,24.10
2022-10-08T01:43:57.217Z,21.20
2022-10-08T01:44:57.213Z,25.10
2022-10-08T01:45:57.791Z,20.60
2022-10-08T01:46:57.250Z,26.40
2022-10-08T01:47:57.259Z,22.60
2022-10-08T01:48:57.288Z,24.80
2022-10-08T01:49:57.274Z,16.60
2022-10-08T01:50:57.341Z,17.10
2022-10-08T01:51:57.323Z,18.30
2022-10-08T01:52:57.436Z,20.10
2022-10-08T01:53:57.480Z,18.20
2022-10-08T01:54:57.374Z,17.70
2022-10-08T01:55:57.359Z,19.10
2022-10-08T01:56:57.408Z,15.50
2022-10-08T01:57:57.414Z,16.80
2022-10-08T01:58:57.443Z,18.60
2022-10-08T01:59:57.422Z,21.70
2022-10-08T02:00:57.547Z,18.60
2022-10-08T02:01:57.512Z,17.40
2022-10-08T02:02:57.497Z,17.50
2022-10-08T02:03:57.500Z,19.90
2022-10-08T02:04:57.515Z,16.10
2022-10-08T02:05:57.498Z,18.80
2022-10-08T02:06:57.538Z,22.30
2022-10-08T02:07:57.547Z,19.60
2022-10-08T02:08:57.571Z,18.30
2022-10-08T02:09:57.540Z,19.20
2022-10-08T02:10:57.592Z,17.70
2022-10-08T02:11:58.077Z,19.70
2022-10-08T02:12:57.602Z,17.50
2022-10-08T02:13:57.619Z,22.30
2022-10-08T02:14:57.615Z,16.90
2022-10-08T02:15:57.734Z,19.10
2022-10-08T02:16:57.648Z,22.50
2022-10-08T02:17:57.644Z,17.20
2022-10-08T02:18:57.678Z,17.70
2022-10-08T02:19:57.673Z,19.50
2022-10-08T02:21:03.623Z,20.10
2022-10-08T02:22:03.713Z,19.50
2022-10-08T02:23:03.702Z,22.30
2022-10-08T02:24:08.669Z,18.30
2022-10-08T02:25:09.217Z,18.80
2022-10-08T02:26:08.780Z,20.70
2022-10-08T02:27:08.765Z,19.50
2022-10-08T02:28:08.829Z,16.90
2022-10-08T02:29:08.810Z,17.00
2022-10-08T02:30:08.793Z,19.60
2022-10-08T02:31:08.869Z,16.80
2022-10-08T02:32:08.903Z,17.00
2022-10-08T02:33:12.566Z,15.30
2022-10-08T02:34:08.910Z,16.60
2022-10-08T02:35:08.917Z,20.20
2022-10-08T02:36:08.944Z,13.00
2022-10-08T02:37:08.936Z,15.80
2022-10-08T02:38:08.935Z,15.60
2022-10-08T02:39:08.978Z,14.50
2022-10-08T02:40:08.950Z,18.10
2022-10-08T02:41:09.004Z,17.90
2022-10-08T02:42:08.976Z,18.90
2022-10-08T02:43:09.013Z,13.00
2022-10-08T02:44:09.023Z,16.50
2022-10-08T02:45:09.053Z,13.90
2022-10-08T02:46:09.286Z,24.90
2022-10-08T02:47:09.099Z,15.00
2022-10-08T02:48:09.063Z,14.80
2022-10-08T02:49:09.099Z,18.60
2022-10-08T02:50:09.066Z,15.60
2022-10-08T02:51:09.101Z,20.50
2022-10-08T02:52:09.227Z,16.40
2022-10-08T02:53:09.141Z,13.70
2022-10-08T02:56:03.205Z,17.90
2022-10-08T02:57:05.889Z,18.00
2022-10-08T02:58:03.206Z,13.10
2022-10-08T02:59:03.220Z,18.50
2022-10-08T03:00:03.202Z,16.90
2022-10-08T03:01:03.291Z,16.10
2022-10-08T03:02:03.300Z,20.40
2022-10-08T03:03:03.357Z,19.60
2022-10-08T03:04:03.239Z,20.20
2022-10-08T03:05:03.259Z,15.70
2022-10-08T03:06:03.273Z,20.40
2022-10-08T03:07:03.295Z,18.80
2022-10-08T03:08:03.294Z,17.60
2022-10-08T03:09:03.362Z,16.50
2022-10-08T03:10:03.340Z,20.80
2022-10-08T03:11:03.347Z,22.10
2022-10-08T03:12:03.360Z,20.30
2022-10-08T03:13:03.374Z,24.90
2022-10-08T03:14:03.388Z,19.60
2022-10-08T03:15:03.386Z,22.20
2022-10-08T03:16:03.405Z,25.00
2022-10-08T03:17:03.482Z,21.30
2022-10-08T03:18:03.405Z,20.90
2022-10-08T03:19:03.479Z,27.60
2022-10-08T03:20:03.439Z,23.10
2022-10-08T03:21:03.473Z,22.40
2022-10-08T03:22:03.473Z,21.80
2022-10-08T03:23:03.510Z,23.20
2022-10-08T03:24:03.609Z,25.20
2022-10-08T03:25:03.527Z,26.40
2022-10-08T03:26:04.050Z,29.00
2022-10-08T03:27:03.592Z,26.40
2022-10-08T03:28:03.620Z,25.80
2022-10-08T03:29:03.620Z,25.70
2022-10-08T03:30:03.623Z,28.00
2022-10-08T03:31:03.681Z,26.10
2022-10-08T03:32:03.639Z,27.60
2022-10-08T03:33:07.126Z,28.60
2022-10-08T03:34:03.704Z,30.80
2022-10-08T03:35:03.730Z,38.50
2022-10-08T03:36:03.700Z,30.40
2022-10-08T03:37:03.767Z,31.90
2022-10-08T03:38:03.707Z,32.20
2022-10-08T03:39:03.754Z,32.60
2022-10-08T03:40:04.700Z,26.70
2022-10-08T03:41:08.694Z,27.40
2022-10-08T03:42:08.795Z,32.40
2022-10-08T03:43:08.806Z,33.20
2022-10-08T03:44:08.826Z,34.10
2022-10-08T03:45:08.960Z,37.20
2022-10-08T03:46:08.927Z,35.80
2022-10-08T03:47:08.890Z,36.60
2022-10-08T03:48:08.908Z,30.50
2022-10-08T03:49:08.918Z,40.00
2022-10-08T03:50:08.950Z,36.20
2022-10-08T03:51:09.050Z,36.70
2022-10-08T03:52:08.980Z,33.10
2022-10-08T03:53:08.992Z,32.80
2022-10-08T03:54:09.041Z,34.30
2022-10-08T03:55:09.034Z,35.40
2022-10-08T03:56:09.094Z,29.80
2022-10-08T03:57:09.092Z,37.00
2022-10-08T03:58:09.114Z,32.40
2022-10-08T04:00:15.050Z,34.70
2022-10-08T04:01:15.285Z,31.00
2022-10-08T04:02:15.246Z,36.80
2022-10-08T04:03:15.232Z,31.60
2022-10-08T04:04:15.256Z,31.70
2022-10-08T04:05:15.219Z,35.40
2022-10-08T04:06:15.268Z,32.30
2022-10-08T04:07:15.400Z,37.60
2022-10-08T04:08:15.273Z,34.70
2022-10-08T04:09:15.327Z,34.10
2022-10-08T04:10:15.346Z,39.50
2022-10-08T04:11:15.395Z,40.60
2022-10-08T04:12:15.366Z,32.70
2022-10-08T04:13:15.417Z,38.30
2022-10-08T04:14:15.427Z,36.40
2022-10-08T04:15:15.389Z,31.20
2022-10-08T04:16:15.539Z,38.00
2022-10-08T04:17:15.669Z,37.00
2022-10-08T04:18:15.470Z,41.50
2022-10-08T04:19:15.529Z,36.10
2022-10-08T04:20:20.811Z,33.40
2022-10-08T04:21:26.457Z,39.60
2022-10-08T04:22:26.547Z,35.20
2022-10-08T04:23:26.554Z,40.00
2022-10-08T04:24:31.471Z,41.80
2022-10-08T04:25:31.612Z,34.40
2022-10-08T04:26:31.775Z,35.00
2022-10-08T04:27:31.678Z,36.50
2022-10-08T04:28:34.939Z,40.50
2022-10-08T04:29:31.693Z,43.20
2022-10-08T04:30:31.717Z,43.10
2022-10-08T04:31:31.838Z,35.40
2022-10-08T04:32:31.782Z,38.30
2022-10-08T04:33:31.769Z,40.20
2022-10-08T04:34:31.769Z,38.10
2022-10-08T04:35:31.814Z,36.10
2022-10-08T04:36:31.790Z,33.80
2022-10-08T04:37:31.882Z,41.20
2022-10-08T04:38:31.832Z,45.60
2022-10-08T04:39:31.875Z,41.20
2022-10-08T04:40:31.915Z,39.00
2022-10-08T04:41:32.282Z,39.70
2022-10-08T04:42:36.879Z,38.40
2022-10-08T04:43:36.968Z,35.90
2022-10-08T04:44:36.969Z,42.00
2022-10-08T04:45:37.025Z,40.30
2022-10-08T04:46:37.075Z,39.70
2022-10-08T04:47:37.101Z,36.50
2022-10-08T04:48:37.055Z,38.10
2022-10-08T04:49:37.088Z,39.90
2022-10-08T04:50:37.104Z,37.80
2022-10-08T04:51:41.998Z,36.10
2022-10-08T04:52:42.134Z,38.60
2022-10-08T04:53:42.156Z,43.20
2022-10-08T04:54:42.177Z,45.90
2022-10-08T04:55:42.221Z,36.80
2022-10-08T04:56:42.215Z,37.40
2022-10-08T04:57:42.233Z,31.70
2022-10-08T04:58:42.242Z,44.40
2022-10-08T05:00:05.765Z,43.50
2022-10-08T05:00:42.406Z,31.80
2022-10-08T05:01:42.321Z,38.40
2022-10-08T05:02:42.357Z,37.70
2022-10-08T05:03:42.295Z,38.20
2022-10-08T05:04:42.355Z,41.70
2022-10-08T05:05:42.351Z,43.30
2022-10-08T05:06:42.518Z,42.10
2022-10-08T05:07:42.424Z,38.40
2022-10-08T05:08:42.433Z,45.20
2022-10-08T05:09:42.419Z,43.80
2022-10-08T05:10:42.457Z,45.70
2022-10-08T05:11:42.463Z,42.90
2022-10-08T05:12:42.517Z,42.20
2022-10-08T05:13:42.501Z,41.00
2022-10-08T05:14:42.536Z,38.80
2022-10-08T05:15:42.593Z,42.40
2022-10-08T05:16:42.548Z,41.90
2022-10-08T05:17:42.679Z,44.90
2022-10-08T05:18:42.590Z,49.70
2022-10-08T05:19:42.589Z,43.70
2022-10-08T05:20:42.639Z,47.30
2022-10-08T05:21:42.626Z,38.70
2022-10-08T05:22:42.640Z,42.40
2022-10-08T05:23:42.758Z,51.40
2022-10-08T05:24:42.677Z,52.30
2022-10-08T05:25:42.667Z,51.00
2022-10-08T05:26:57.485Z,46.10
2022-10-08T05:27:42.709Z,49.00
2022-10-08T05:28:42.808Z,49.60
2022-10-08T05:29:42.778Z,43.20
2022-10-08T05:30:42.762Z,47.80
2022-10-08T05:31:42.765Z,47.40
2022-10-08T05:32:42.828Z,48.00
2022-10-08T05:33:42.818Z,44.30
2022-10-08T05:34:42.864Z,40.90
2022-10-08T05:35:42.871Z,47.10
2022-10-08T05:36:42.876Z,44.40
2022-10-08T05:37:47.843Z,44.50
2022-10-08T05:38:47.883Z,47.60
2022-10-08T05:39:47.918Z,36.80
2022-10-08T05:40:47.924Z,46.60
2022-10-08T05:41:47.936Z,42.80
2022-10-08T05:42:48.261Z,49.70
2022-10-08T05:43:47.971Z,46.80
2022-10-08T05:44:47.960Z,43.80
2022-10-08T05:45:48.036Z,41.20
2022-10-08T05:46:48.041Z,43.40
2022-10-08T05:47:48.037Z,49.50
2022-10-08T05:48:48.046Z,43.50
2022-10-08T05:49:48.074Z,46.00
2022-10-08T05:50:48.205Z,42.20
2022-10-08T05:51:48.089Z,39.90
2022-10-08T05:52:48.361Z,41.30
2022-10-08T05:53:48.135Z,40.20
2022-10-08T05:54:48.137Z,43.40
2022-10-08T05:55:48.163Z,37.00
2022-10-08T05:56:48.189Z,41.60
2022-10-08T05:57:48.223Z,38.10
2022-10-08T05:58:48.229Z,43.30
2022-10-08T05:59:48.243Z,48.10
2022-10-08T06:00:48.234Z,44.60
2022-10-08T06:01:48.304Z,37.90
2022-10-08T06:02:48.619Z,33.60
2022-10-08T06:03:48.281Z,37.70
2022-10-08T06:04:48.301Z,42.00
2022-10-08T06:05:48.320Z,36.40
2022-10-08T06:06:48.458Z,42.00
2022-10-08T06:07:48.343Z,38.90
2022-10-08T06:08:48.336Z,38.50
2022-10-08T06:09:48.378Z,42.10
2022-10-08T06:10:48.383Z,41.80
2022-10-08T06:11:48.426Z,43.30
2022-10-08T06:12:48.920Z,37.80
2022-10-08T06:13:48.429Z,31.60
2022-10-08T06:14:48.421Z,35.30
2022-10-08T06:15:48.467Z,37.80
2022-10-08T06:16:48.452Z,39.50
2022-10-08T06:17:48.619Z,37.60
2022-10-08T06:18:48.467Z,42.00
2022-10-08T06:19:48.506Z,41.20
2022-10-08T06:20:48.490Z,50.30
2022-10-08T06:21:48.529Z,40.50
2022-10-08T06:22:49.085Z,37.40
2022-10-08T06:23:49.154Z,30.30
2022-10-08T06:24:48.564Z,26.20
2022-10-08T06:25:48.591Z,32.70
2022-10-08T06:26:48.574Z,34.60
2022-10-08T06:27:48.621Z,43.70
2022-10-08T06:28:48.593Z,34.90
2022-10-08T06:29:48.773Z,31.50
2022-10-08T06:30:48.627Z,32.90
2022-10-08T06:31:48.719Z,35.30
2022-10-08T06:32:49.351Z,32.50
2022-10-08T06:33:48.776Z,36.20
2022-10-08T06:34:48.658Z,35.60
2022-10-08T06:35:48.799Z,37.10
2022-10-08T06:36:49.138Z,38.60
2022-10-08T06:37:48.720Z,34.40
2022-10-08T06:38:48.731Z,32.40
2022-10-08T06:39:48.780Z,38.00
2022-10-08T06:40:48.743Z,29.70
2022-10-08T06:41:48.774Z,44.20
2022-10-08T06:42:49.287Z,31.40
2022-10-08T06:43:48.828Z,34.40
2022-10-08T06:44:48.780Z,30.60
2022-10-08T06:45:48.810Z,31.60
2022-10-08T06:46:48.925Z,34.30
2022-10-08T06:47:48.884Z,40.80
2022-10-08T06:48:48.835Z,28.80
2022-10-08T06:49:48.902Z,30.80
2022-10-08T06:50:48.857Z,30.70
2022-10-08T06:51:48.899Z,29.00
2022-10-08T06:52:49.486Z,33.70
2022-10-08T06:53:48.918Z,33.40
2022-10-08T06:54:48.886Z,36.20
2022-10-08T06:55:48.927Z,32.40
2022-10-08T06:56:48.944Z,33.90
2022-10-08T06:57:48.942Z,30.00
2022-10-08T06:58:48.946Z,35.80
2022-10-08T06:59:49.007Z,32.20
2022-10-08T07:00:49.051Z,26.90
2022-10-08T07:01:49.106Z,30.80
2022-10-08T07:02:49.534Z,32.00
2022-10-08T07:03:49.219Z,28.60
2022-10-08T07:04:49.054Z,27.60
2022-10-08T07:05:49.089Z,27.40
2022-10-08T07:06:49.105Z,32.70
2022-10-08T07:07:49.115Z,28.60
2022-10-08T07:08:49.087Z,23.50
2022-10-08T07:09:49.128Z,22.00
2022-10-08T07:10:49.125Z,27.10
2022-10-08T07:11:49.290Z,17.00
2022-10-08T07:12:49.870Z,25.00
2022-10-08T07:13:49.352Z,29.90
2022-10-08T07:14:49.234Z,25.60
2022-10-08T07:15:49.377Z,23.60
2022-10-08T07:16:49.341Z,20.80
2022-10-08T07:17:49.368Z,19.20
2022-10-08T07:20:43.236Z,25.70
2022-10-08T07:21:43.359Z,15.70
2022-10-08T07:22:43.353Z,22.40
2022-10-08T07:23:43.501Z,22.10
2022-10-08T07:24:43.417Z,21.80
2022-10-08T07:25:49.324Z,21.30
2022-10-08T07:26:49.474Z,23.40
2022-10-08T07:27:49.476Z,18.70
2022-10-08T07:28:54.493Z,16.40
2022-10-08T07:29:59.452Z,24.90
2022-10-08T07:30:59.536Z,22.40
2022-10-08T07:31:59.570Z,22.80
2022-10-08T07:32:59.584Z,25.70
2022-10-08T07:33:59.724Z,16.90
2022-10-08T07:35:04.609Z,21.70
2022-10-08T07:36:04.635Z,17.30
2022-10-08T07:37:04.671Z,20.70
2022-10-08T07:38:04.677Z,17.30
2022-10-08T07:39:04.727Z,19.10
2022-10-08T07:40:04.739Z,23.60
2022-10-08T07:41:10.681Z,18.00
2022-10-08T07:42:10.785Z,19.00
2022-10-08T07:43:11.748Z,11.40
2022-10-08T07:44:11.935Z,14.70
2022-10-08T07:45:11.958Z,14.50
2022-10-08T07:46:12.076Z,18.90
2022-10-08T07:47:11.844Z,16.10
2022-10-08T07:48:11.879Z,18.40
2022-10-08T07:49:11.891Z,15.30
2022-10-08T07:50:12.053Z,19.80
2022-10-08T07:51:11.909Z,14.50
2022-10-08T07:52:11.968Z,22.00
2022-10-08T07:53:11.958Z,19.20
2022-10-08T07:54:12.007Z,14.20
2022-10-08T07:55:12.092Z,14.80
2022-10-08T07:56:12.138Z,18.90
2022-10-08T07:57:12.022Z,16.40
2022-10-08T07:58:12.083Z,16.60
2022-10-08T07:59:12.069Z,16.20
2022-10-08T08:00:12.589Z,21.10
2022-10-08T08:01:12.257Z,19.00
2022-10-08T08:02:12.405Z,21.60
2022-10-08T08:03:12.171Z,21.80
2022-10-08T08:04:12.210Z,16.80
2022-10-08T08:05:12.217Z,17.00
2022-10-08T08:06:12.258Z,16.10
2022-10-08T08:07:12.231Z,15.50
2022-10-08T08:08:12.391Z,16.10
2022-10-08T08:09:12.268Z,19.30
2022-10-08T08:10:12.326Z,19.30
2022-10-08T08:11:12.299Z,16.60
2022-10-08T08:12:12.337Z,13.50
2022-10-08T08:13:12.351Z,18.50
2022-10-08T08:14:12.495Z,21.40
2022-10-08T08:15:12.487Z,16.70
2022-10-08T08:16:12.465Z,15.30
2022-10-08T08:17:12.422Z,19.10
2022-10-08T08:18:12.473Z,12.80
2022-10-08T08:19:12.466Z,18.10
2022-10-08T08:20:18.403Z,14.10
2022-10-08T08:21:18.527Z,17.00
2022-10-08T08:22:18.539Z,15.20
2022-10-08T08:23:18.586Z,15.40
2022-10-08T08:24:18.590Z,16.30
2022-10-08T08:25:18.766Z,17.20
2022-10-08T08:26:18.648Z,17.90
2022-10-08T08:27:18.756Z,15.90
2022-10-08T08:28:18.799Z,19.10
2022-10-08T08:29:18.824Z,15.30
2022-10-08T08:30:18.745Z,15.80
2022-10-08T08:31:20.005Z,18.00
2022-10-08T08:32:28.240Z,22.10
2022-10-08T08:33:23.892Z,20.10
2022-10-08T08:34:23.874Z,15.90
2022-10-08T08:35:23.931Z,15.90
2022-10-08T08:36:23.947Z,14.90
2022-10-08T08:37:24.012Z,17.20
2022-10-08T08:38:23.986Z,14.50
2022-10-08T08:39:24.041Z,16.10
2022-10-08T08:40:24.119Z,15.70
2022-10-08T08:41:24.101Z,15.90
2022-10-08T08:42:24.127Z,17.00
2022-10-08T08:43:24.147Z,10.80
2022-10-08T08:44:24.143Z,12.20
2022-10-08T08:45:45.457Z,15.80
2022-10-08T08:46:24.369Z,21.40
2022-10-08T08:47:24.356Z,13.70
2022-10-08T08:48:24.313Z,14.10
2022-10-08T08:49:24.347Z,11.80
2022-10-08T08:50:24.373Z,14.50
2022-10-08T08:51:24.402Z,12.50
2022-10-08T08:52:24.445Z,14.70
2022-10-08T08:53:24.465Z,18.60
2022-10-08T08:54:24.486Z,16.20
2022-10-08T08:55:24.531Z,15.80
2022-10-08T08:56:24.560Z,13.40
2022-10-08T08:57:24.618Z,17.50
2022-10-08T08:58:24.603Z,13.20
2022-10-08T08:59:29.612Z,11.90
2022-10-08T09:00:30.221Z,21.80
2022-10-08T09:01:29.835Z,12.20
2022-10-08T09:02:29.831Z,12.30
2022-10-08T09:03:29.763Z,14.60
2022-10-08T09:04:29.821Z,18.80
2022-10-08T09:05:29.887Z,18.70
2022-10-08T09:06:29.877Z,15.60
2022-10-08T09:07:29.912Z,13.00
2022-10-08T09:08:29.953Z,16.40
2022-10-08T09:09:29.953Z,11.90
2022-10-08T09:10:30.043Z,14.70
2022-10-08T09:11:30.035Z,17.00
2022-10-08T09:12:35.018Z,11.40
2022-10-08T09:13:35.155Z,13.60
2022-10-08T09:14:35.146Z,13.40
2022-10-08T09:15:35.197Z,13.70
2022-10-08T09:16:35.274Z,11.80
2022-10-08T09:17:35.309Z,11.40
2022-10-08T09:18:35.286Z,14.70
2022-10-08T09:19:35.355Z,12.10
2022-10-08T09:20:40.003Z,13.90
2022-10-08T09:21:35.388Z,10.30
2022-10-08T09:22:35.443Z,21.30
2022-10-08T09:23:35.458Z,15.90
2022-10-08T09:24:35.480Z,16.70
2022-10-08T09:25:35.503Z,12.10
2022-10-08T09:26:35.568Z,15.30
2022-10-08T09:27:35.612Z,20.10
2022-10-08T09:28:35.666Z,11.50
2022-10-08T09:29:35.639Z,14.10
2022-10-08T09:30:35.736Z,15.20
2022-10-08T09:31:41.575Z,13.20
2022-10-08T09:32:41.756Z,17.10
2022-10-08T09:33:41.713Z,12.60
2022-10-08T09:34:41.774Z,16.60
2022-10-08T09:35:41.782Z,10.90
2022-10-08T09:36:41.840Z,11.60
2022-10-08T09:37:41.872Z,13.50
2022-10-08T09:38:41.925Z,12.70
2022-10-08T09:39:41.940Z,15.90
2022-10-08T09:40:41.969Z,20.00
2022-10-08T09:41:41.980Z,12.90
2022-10-08T09:42:42.064Z,11.20
2022-10-08T09:43:42.083Z,22.60
2022-10-08T09:44:42.114Z,12.70
2022-10-08T09:45:42.231Z,14.70
2022-10-08T09:46:42.189Z,12.10
2022-10-08T09:47:42.211Z,18.00
2022-10-08T09:48:42.291Z,15.00
2022-10-08T09:49:42.284Z,10.80
2022-10-08T09:50:42.360Z,13.40
2022-10-08T09:51:42.411Z,13.30
2022-10-08T09:52:42.488Z,15.30
2022-10-08T09:53:42.474Z,13.00
2022-10-08T09:54:42.510Z,15.60
2022-10-08T09:55:42.539Z,11.80
2022-10-08T09:56:42.605Z,12.80
2022-10-08T09:57:43.900Z,12.20
2022-10-08T09:58:42.715Z,15.10
2022-10-08T09:59:42.724Z,11.50
2022-10-08T10:00:42.801Z,14.70
2022-10-08T10:01:42.839Z,11.50
2022-10-08T10:02:42.905Z,12.60
2022-10-08T10:03:43.002Z,11.60
2022-10-08T10:04:43.004Z,11.60
2022-10-08T10:05:43.052Z,8.50
2022-10-08T10:06:43.140Z,12.50
2022-10-08T10:07:43.117Z,10.40
2022-10-08T10:08:43.208Z,13.90
2022-10-08T10:09:43.219Z,10.60
2022-10-08T10:10:43.271Z,12.70
2022-10-08T10:11:43.292Z,10.90
2022-10-08T10:12:43.399Z,8.50
2022-10-08T10:13:43.389Z,13.60
2022-10-08T10:14:43.441Z,14.00
2022-10-08T10:15:43.451Z,14.20
2022-10-08T10:16:43.553Z,15.40
2022-10-08T10:17:43.543Z,13.50
2022-10-08T10:18:43.650Z,11.10
2022-10-08T10:19:43.630Z,10.60
2022-10-08T10:20:43.709Z,9.20
2022-10-08T10:21:43.708Z,12.80
2022-10-08T10:22:43.797Z,10.40
2022-10-08T10:23:43.847Z,12.70
2022-10-08T10:24:43.860Z,10.40
2022-10-08T10:25:43.886Z,11.20
2022-10-08T10:26:43.938Z,9.60
2022-10-08T10:27:43.966Z,12.70
2022-10-08T10:28:44.074Z,16.60
2022-10-08T10:29:44.020Z,14.70
2022-10-08T10:30:44.122Z,12.00
2022-10-08T10:31:44.091Z,10.40
2022-10-08T10:32:44.231Z,10.30
2022-10-08T10:33:44.186Z,7.90
2022-10-08T10:34:44.217Z,7.30
2022-10-08T10:35:44.230Z,10.90
2022-10-08T10:36:44.291Z,9.50
2022-10-08T10:39:38.321Z,11.80
2022-10-08T10:40:38.432Z,7.30
2022-10-08T10:41:38.446Z,9.10
2022-10-08T10:42:38.493Z,10.40
2022-10-08T10:43:38.550Z,14.30
2022-10-08T10:44:38.613Z,11.90
2022-10-08T10:45:38.579Z,11.70
2022-10-08T10:46:43.533Z,8.80
2022-10-08T10:47:43.660Z,6.90
2022-10-08T10:48:43.711Z,8.90
2022-10-08T10:49:43.733Z,10.50
2022-10-08T10:50:43.787Z,10.60
2022-10-08T10:51:44.358Z,13.50
2022-10-08T10:52:49.313Z,15.10
2022-10-08T10:53:48.906Z,13.30
2022-10-08T10:54:48.873Z,12.20
2022-10-08T10:55:53.859Z,11.40
2022-10-08T10:56:48.955Z,13.40
2022-10-08T10:57:49.000Z,11.30
2022-10-08T10:58:49.045Z,11.60
2022-10-08T10:59:49.070Z,9.60
2022-10-08T11:00:49.095Z,16.20
2022-10-08T11:01:49.232Z,16.70
2022-10-08T11:02:49.559Z,9.20
2022-10-08T11:03:49.248Z,11.10
2022-10-08T11:04:49.221Z,15.30
2022-10-08T11:05:49.291Z,11.10
2022-10-08T11:06:49.322Z,9.90
2022-10-08T11:07:49.377Z,11.80
2022-10-08T11:08:49.923Z,7.80
2022-10-08T11:09:55.372Z,14.60
2022-10-08T11:10:55.565Z,9.80
2022-10-08T11:11:55.527Z,11.90
2022-10-08T11:12:55.602Z,6.60
2022-10-08T11:13:55.651Z,10.50
2022-10-08T11:14:55.686Z,15.40
2022-10-08T11:15:55.832Z,10.70
2022-10-08T11:16:55.767Z,13.30
2022-10-08T11:17:55.793Z,10.50
2022-10-08T11:18:55.849Z,9.90
2022-10-08T11:19:55.853Z,11.60
2022-10-08T11:20:55.932Z,13.90
2022-10-08T11:21:55.913Z,11.10
2022-10-08T11:22:55.967Z,11.30
2022-10-08T11:23:56.008Z,10.80
2022-10-08T11:24:56.034Z,14.10
2022-10-08T11:26:20.505Z,9.90
2022-10-08T11:26:56.119Z,9.10
2022-10-08T11:27:56.154Z,7.80
2022-10-08T11:28:56.216Z,9.00
2022-10-08T11:29:56.203Z,7.70
2022-10-08T11:30:56.390Z,13.50
2022-10-08T11:31:56.262Z,11.80
2022-10-08T11:32:56.361Z,11.70
2022-10-08T11:33:56.362Z,11.50
2022-10-08T11:34:56.408Z,10.10
2022-10-08T11:35:56.423Z,11.20
2022-10-08T11:37:02.344Z,12.10
2022-10-08T11:38:02.491Z,11.10
2022-10-08T11:39:02.494Z,11.50
2022-10-08T11:40:02.566Z,11.00
2022-10-08T11:41:02.538Z,16.40
2022-10-08T11:42:02.597Z,11.80
2022-10-08T11:43:02.608Z,20.30
2022-10-08T11:44:02.716Z,10.40
2022-10-08T11:45:02.706Z,19.40
2022-10-08T11:46:07.738Z,16.90
2022-10-08T11:47:07.773Z,11.80
2022-10-08T11:48:09.867Z,14.00
2022-10-08T11:49:07.833Z,13.70
2022-10-08T11:50:07.844Z,14.60
2022-10-08T11:51:07.895Z,15.60
2022-10-08T11:52:07.902Z,10.10
2022-10-08T11:53:13.860Z,11.50
2022-10-08T11:54:14.007Z,13.90
2022-10-08T11:55:14.028Z,18.40
2022-10-08T11:56:19.012Z,14.20
2022-10-08T11:57:19.111Z,12.60
2022-10-08T11:58:19.145Z,12.30
2022-10-08T11:59:19.193Z,12.00
2022-10-08T12:00:19.204Z,14.40
2022-10-08T12:01:19.280Z,14.70
2022-10-08T12:02:19.451Z,13.40
2022-10-08T12:03:19.535Z,11.00
2022-10-08T12:04:19.395Z,14.60
2022-10-08T12:05:19.428Z,19.50
2022-10-08T12:06:19.443Z,13.70
2022-10-08T12:07:19.501Z,15.70
2022-10-08T12:08:19.547Z,9.10
2022-10-08T12:09:19.599Z,14.80
2022-10-08T12:10:19.619Z,13.10
2022-10-08T12:11:19.665Z,14.30
2022-10-08T12:12:19.683Z,12.00
2022-10-08T12:13:19.774Z,14.20
2022-10-08T12:14:19.796Z,11.30
2022-10-08T12:15:19.814Z,8.60
2022-10-08T12:16:19.935Z,11.80
2022-10-08T12:17:19.905Z,12.90
2022-10-08T12:18:23.716Z,9.10
2022-10-08T12:19:20.004Z,12.90
2022-10-08T12:20:20.024Z,12.20
2022-10-08T12:21:20.108Z,12.40
2022-10-08T12:22:20.614Z,10.30
2022-10-08T12:23:20.183Z,10.40
2022-10-08T12:24:20.216Z,14.10
2022-10-08T12:25:20.244Z,14.80
2022-10-08T12:26:20.276Z,13.50
2022-10-08T12:27:20.326Z,10.50
2022-10-08T12:28:20.474Z,8.30
2022-10-08T12:29:25.318Z,17.70
2022-10-08T12:30:25.458Z,7.60
2022-10-08T12:31:25.564Z,10.70
2022-10-08T12:32:25.582Z,9.00
2022-10-08T12:33:25.623Z,10.80
2022-10-08T12:34:25.691Z,13.90
2022-10-08T12:35:25.720Z,13.40
2022-10-08T12:36:25.742Z,11.60
2022-10-08T12:37:25.760Z,10.20
2022-10-08T12:38:30.773Z,9.50
2022-10-08T12:39:30.863Z,10.30
2022-10-08T12:40:30.881Z,9.80
2022-10-08T12:41:30.974Z,10.20
2022-10-08T12:42:31.002Z,8.40
2022-10-08T12:43:31.062Z,13.00
2022-10-08T12:44:31.109Z,16.30
2022-10-08T12:45:31.130Z,9.00
2022-10-08T12:46:31.214Z,10.70
2022-10-08T12:47:31.248Z,14.60
2022-10-08T12:48:31.356Z,10.20
2022-10-08T12:49:31.360Z,8.90
2022-10-08T12:50:31.352Z,10.20
2022-10-08T12:51:31.413Z,9.20
2022-10-08T12:52:31.457Z,10.70
2022-10-08T12:53:31.565Z,9.10
2022-10-08T12:54:31.557Z,10.20
2022-10-08T12:55:37.013Z,11.30
2022-10-08T12:56:31.626Z,9.70
2022-10-08T12:57:31.695Z,11.00
2022-10-08T12:58:31.749Z,12.10
2022-10-08T12:59:31.771Z,14.30
2022-10-08T13:00:31.903Z,9.20
2022-10-08T13:01:37.777Z,10.00
2022-10-08T13:02:37.895Z,8.60
2022-10-08T13:03:37.961Z,8.50
2022-10-08T13:04:38.016Z,11.20